sensor_id;sensor_type;location;lat;lon;timestamp;temperature;humidity
2757;DHT22;1386;50.862;6.494;2023-08-30T00:01:33;16.20;99.90
2757;DHT22;1386;50.862;6.494;2023-08-30T00:04:00;16.10;99.90
2757;DHT22;1386;50.862;6.494;2023-08-30T00:06:27;16.10;99.90
2757;DHT22;1386;50.862;6.494;2023-08-30T00:08:54;16.10;99.90
2757;DHT22;1386;50.862;6.494;2023-08-30T00:11:22;16.10;99.90
2757;DHT22;1386;50.862;6.494;2023-08-30T00:13:49;16.10;99.90
2757;DHT22;1386;50.862;6.494;2023-08-30T00:16:17;16.10;99.90
2757;DHT22;1386;50.862;6.494;2023-08-30T00:18:44;16.10;99.90
2757;DHT22;1386;50.862;6.494;2023-08-30T00:21:11;16.10;99.90
2757;DHT22;1386;50.862;6.494;2023-08-30T00:23:37;16.00;99.90
2757;DHT22;1386;50.862;6.494;2023-08-30T00:26:04;16.00;99.90
2757;DHT22;1386;50.862;6.494;2023-08-30T00:28:31;16.00;99.90
2757;DHT22;1386;50.862;6.494;2023-08-30T00:30:58;16.00;99.90
2757;DHT22;1386;50.862;6.494;2023-08-30T00:33:26;16.00;99.90
2757;DHT22;1386;50.862;6.494;2023-08-30T00:35:57;16.00;99.90
2757;DHT22;1386;50.862;6.494;2023-08-30T00:38:25;16.00;99.90
2757;DHT22;1386;50.862;6.494;2023-08-30T00:40:52;16.00;99.90
2757;DHT22;1386;50.862;6.494;2023-08-30T00:43:21;15.90;99.90
2757;DHT22;1386;50.862;6.494;2023-08-30T00:45:49;15.90;99.90
2757;DHT22;1386;50.862;6.494;2023-08-30T00:48:17;15.90;99.90
2757;DHT22;1386;50.862;6.494;2023-08-30T00:50:47;15.90;99.90
2757;DHT22;1386;50.862;6.494;2023-08-30T00:53:14;15.80;99.90
2757;DHT22;1386;50.862;6.494;2023-08-30T00:55:42;15.80;99.90
2757;DHT22;1386;50.862;6.494;2023-08-30T00:58:09;15.70;99.90
2757;DHT22;1386;50.862;6.494;2023-08-30T01:00:37;15.70;99.90
2757;DHT22;1386;50.862;6.494;2023-08-30T01:03:05;15.70;99.90
2757;DHT22;1386;50.862;6.494;2023-08-30T01:05:33;15.60;99.90
2757;DHT22;1386;50.862;6.494;2023-08-30T01:08:01;15.60;99.90
2757;DHT22;1386;50.862;6.494;2023-08-30T01:10:38;15.50;99.90
2757;DHT22;1386;50.862;6.494;2023-08-30T01:13:10;15.50;99.90
2757;DHT22;1386;50.862;6.494;2023-08-30T01:15:40;15.40;99.90
2757;DHT22;1386;50.862;6.494;2023-08-30T01:18:07;15.40;99.90
2757;DHT22;1386;50.862;6.494;2023-08-30T01:20:37;15.30;99.90
2757;DHT22;1386;50.862;6.494;2023-08-30T01:23:09;15.30;99.90
2757;DHT22;1386;50.862;6.494;2023-08-30T01:25:47;15.30;99.90
2757;DHT22;1386;50.862;6.494;2023-08-30T01:28:21;15.20;99.90
2757;DHT22;1386;50.862;6.494;2023-08-30T01:30:48;15.20;99.90
2757;DHT22;1386;50.862;6.494;2023-08-30T01:33:16;15.10;99.90
2757;DHT22;1386;50.862;6.494;2023-08-30T01:35:45;15.10;99.90
2757;DHT22;1386;50.862;6.494;2023-08-30T01:38:13;15.10;99.90
2757;DHT22;1386;50.862;6.494;2023-08-30T01:40:42;15.10;99.90
2757;DHT22;1386;50.862;6.494;2023-08-30T01:43:10;15.10;99.90
2757;DHT22;1386;50.862;6.494;2023-08-30T01:45:41;15.10;99.90
2757;DHT22;1386;50.862;6.494;2023-08-30T01:48:10;15.00;99.90
2757;DHT22;1386;50.862;6.494;2023-08-30T01:50:38;15.00;99.90
2757;DHT22;1386;50.862;6.494;2023-08-30T01:53:06;15.00;99.90
2757;DHT22;1386;50.862;6.494;2023-08-30T01:55:34;14.90;99.90
2757;DHT22;1386;50.862;6.494;2023-08-30T01:58:02;14.90;99.90
2757;DHT22;1386;50.862;6.494;2023-08-30T02:00:29;14.90;99.90
2757;DHT22;1386;50.862;6.494;2023-08-30T02:02:57;15.00;99.90
2757;DHT22;1386;50.862;6.494;2023-08-30T02:05:24;15.00;99.90
2757;DHT22;1386;50.862;6.494;2023-08-30T02:07:57;15.00;99.90
2757;DHT22;1386;50.862;6.494;2023-08-30T02:10:30;14.90;99.90
2757;DHT22;1386;50.862;6.494;2023-08-30T02:12:59;14.90;99.90
2757;DHT22;1386;50.862;6.494;2023-08-30T02:15:27;14.90;99.90
2757;DHT22;1386;50.862;6.494;2023-08-30T02:18:03;14.90;99.90
2757;DHT22;1386;50.862;6.494;2023-08-30T02:20:39;14.90;99.90
2757;DHT22;1386;50.862;6.494;2023-08-30T02:23:05;14.80;99.90
2757;DHT22;1386;50.862;6.494;2023-08-30T02:25:32;14.80;99.90
2757;DHT22;1386;50.862;6.494;2023-08-30T02:27:59;14.80;99.90
2757;DHT22;1386;50.862;6.494;2023-08-30T02:30:26;14.80;99.90
2757;DHT22;1386;50.862;6.494;2023-08-30T02:32:53;14.70;99.90
2757;DHT22;1386;50.862;6.494;2023-08-30T02:35:21;14.70;99.90
2757;DHT22;1386;50.862;6.494;2023-08-30T02:37:48;14.60;99.90
2757;DHT22;1386;50.862;6.494;2023-08-30T02:40:15;14.50;99.90
2757;DHT22;1386;50.862;6.494;2023-08-30T02:42:42;14.50;99.90
2757;DHT22;1386;50.862;6.494;2023-08-30T02:45:09;14.50;99.90
2757;DHT22;1386;50.862;6.494;2023-08-30T02:47:36;14.50;99.90
2757;DHT22;1386;50.862;6.494;2023-08-30T02:50:03;14.50;99.90
2757;DHT22;1386;50.862;6.494;2023-08-30T02:52:31;14.50;99.90
2757;DHT22;1386;50.862;6.494;2023-08-30T02:54:58;14.40;99.90
2757;DHT22;1386;50.862;6.494;2023-08-30T02:57:25;14.40;99.90
2757;DHT22;1386;50.862;6.494;2023-08-30T02:59:52;14.40;99.90
2757;DHT22;1386;50.862;6.494;2023-08-30T03:02:19;14.40;99.90
2757;DHT22;1386;50.862;6.494;2023-08-30T03:04:45;14.40;99.90
2757;DHT22;1386;50.862;6.494;2023-08-30T03:07:12;14.30;99.90
2757;DHT22;1386;50.862;6.494;2023-08-30T03:09:40;14.30;99.90
2757;DHT22;1386;50.862;6.494;2023-08-30T03:12:07;14.30;99.90
2757;DHT22;1386;50.862;6.494;2023-08-30T03:14:34;14.30;99.90
2757;DHT22;1386;50.862;6.494;2023-08-30T03:17:01;14.20;99.90
2757;DHT22;1386;50.862;6.494;2023-08-30T03:19:28;14.20;99.90
2757;DHT22;1386;50.862;6.494;2023-08-30T03:21:54;14.20;99.90
2757;DHT22;1386;50.862;6.494;2023-08-30T03:24:22;14.10;99.90
2757;DHT22;1386;50.862;6.494;2023-08-30T03:26:50;14.10;99.90
2757;DHT22;1386;50.862;6.494;2023-08-30T03:29:17;14.10;99.90
2757;DHT22;1386;50.862;6.494;2023-08-30T03:31:44;14.10;99.90
2757;DHT22;1386;50.862;6.494;2023-08-30T03:34:11;14.10;99.90
2757;DHT22;1386;50.862;6.494;2023-08-30T03:36:38;14.20;99.90
2757;DHT22;1386;50.862;6.494;2023-08-30T03:39:06;14.20;99.90
2757;DHT22;1386;50.862;6.494;2023-08-30T03:41:33;14.20;99.90
2757;DHT22;1386;50.862;6.494;2023-08-30T03:44:01;14.30;99.90
2757;DHT22;1386;50.862;6.494;2023-08-30T03:46:28;14.20;99.90
2757;DHT22;1386;50.862;6.494;2023-08-30T03:48:55;14.20;99.90
2757;DHT22;1386;50.862;6.494;2023-08-30T03:51:22;14.20;99.90
2757;DHT22;1386;50.862;6.494;2023-08-30T03:53:49;14.20;99.90
2757;DHT22;1386;50.862;6.494;2023-08-30T03:56:15;14.10;99.90
2757;DHT22;1386;50.862;6.494;2023-08-30T03:58:42;14.20;99.90
2757;DHT22;1386;50.862;6.494;2023-08-30T04:01:11;14.10;99.90
2757;DHT22;1386;50.862;6.494;2023-08-30T04:03:38;14.10;99.90
2757;DHT22;1386;50.862;6.494;2023-08-30T04:06:05;14.10;99.90
2757;DHT22;1386;50.862;6.494;2023-08-30T04:08:35;14.10;99.90
2757;DHT22;1386;50.862;6.494;2023-08-30T04:11:02;14.20;99.90
2757;DHT22;1386;50.862;6.494;2023-08-30T04:13:29;14.20;99.90
2757;DHT22;1386;50.862;6.494;2023-08-30T04:15:56;14.20;99.90
2757;DHT22;1386;50.862;6.494;2023-08-30T04:18:25;14.20;99.90
2757;DHT22;1386;50.862;6.494;2023-08-30T04:20:52;14.20;99.90
2757;DHT22;1386;50.862;6.494;2023-08-30T04:23:19;14.20;99.90
2757;DHT22;1386;50.862;6.494;2023-08-30T04:25:45;14.20;99.90
2757;DHT22;1386;50.862;6.494;2023-08-30T04:28:12;14.20;99.90
2757;DHT22;1386;50.862;6.494;2023-08-30T04:30:39;14.20;99.90
2757;DHT22;1386;50.862;6.494;2023-08-30T04:33:06;14.30;99.90
2757;DHT22;1386;50.862;6.494;2023-08-30T04:35:34;14.30;99.90
2757;DHT22;1386;50.862;6.494;2023-08-30T04:38:02;14.20;99.90
2757;DHT22;1386;50.862;6.494;2023-08-30T04:40:29;14.20;99.90
2757;DHT22;1386;50.862;6.494;2023-08-30T04:42:58;14.20;99.90
2757;DHT22;1386;50.862;6.494;2023-08-30T04:45:25;14.10;99.90
2757;DHT22;1386;50.862;6.494;2023-08-30T04:47:53;14.10;99.90
2757;DHT22;1386;50.862;6.494;2023-08-30T04:50:20;14.10;99.90
2757;DHT22;1386;50.862;6.494;2023-08-30T04:52:48;14.20;99.90
2757;DHT22;1386;50.862;6.494;2023-08-30T04:55:15;14.10;99.90
2757;DHT22;1386;50.862;6.494;2023-08-30T04:57:42;14.20;99.90
2757;DHT22;1386;50.862;6.494;2023-08-30T05:00:11;14.20;99.90
2757;DHT22;1386;50.862;6.494;2023-08-30T05:02:38;14.20;99.90
2757;DHT22;1386;50.862;6.494;2023-08-30T05:05:06;14.20;99.90
2757;DHT22;1386;50.862;6.494;2023-08-30T05:07:33;14.20;99.90
2757;DHT22;1386;50.862;6.494;2023-08-30T05:10:02;14.20;99.90
2757;DHT22;1386;50.862;6.494;2023-08-30T05:12:29;14.30;99.90
2757;DHT22;1386;50.862;6.494;2023-08-30T05:14:56;14.30;99.90
2757;DHT22;1386;50.862;6.494;2023-08-30T05:17:23;14.30;99.90
2757;DHT22;1386;50.862;6.494;2023-08-30T05:19:49;14.30;99.90
2757;DHT22;1386;50.862;6.494;2023-08-30T05:22:16;14.30;99.90
2757;DHT22;1386;50.862;6.494;2023-08-30T05:24:43;14.30;99.90
2757;DHT22;1386;50.862;6.494;2023-08-30T05:27:11;14.30;99.90
2757;DHT22;1386;50.862;6.494;2023-08-30T05:29:40;14.40;99.90
2757;DHT22;1386;50.862;6.494;2023-08-30T05:32:07;14.40;99.90
2757;DHT22;1386;50.862;6.494;2023-08-30T05:34:34;14.40;99.90
2757;DHT22;1386;50.862;6.494;2023-08-30T05:37:02;14.40;99.90
2757;DHT22;1386;50.862;6.494;2023-08-30T05:39:29;14.40;99.90
2757;DHT22;1386;50.862;6.494;2023-08-30T05:41:55;14.40;99.90
2757;DHT22;1386;50.862;6.494;2023-08-30T05:44:24;14.40;99.90
2757;DHT22;1386;50.862;6.494;2023-08-30T05:46:50;14.50;99.90
2757;DHT22;1386;50.862;6.494;2023-08-30T05:49:17;14.50;99.90
2757;DHT22;1386;50.862;6.494;2023-08-30T05:51:44;14.50;99.90
2757;DHT22;1386;50.862;6.494;2023-08-30T05:54:11;14.50;99.90
2757;DHT22;1386;50.862;6.494;2023-08-30T05:56:38;14.50;99.90
2757;DHT22;1386;50.862;6.494;2023-08-30T05:59:04;14.50;99.90
2757;DHT22;1386;50.862;6.494;2023-08-30T06:01:33;14.60;99.90
2757;DHT22;1386;50.862;6.494;2023-08-30T06:04:00;14.60;99.90
2757;DHT22;1386;50.862;6.494;2023-08-30T06:06:29;14.60;99.90
2757;DHT22;1386;50.862;6.494;2023-08-30T06:08:58;14.70;99.90
2757;DHT22;1386;50.862;6.494;2023-08-30T06:11:25;14.70;99.90
2757;DHT22;1386;50.862;6.494;2023-08-30T06:13:51;14.70;99.90
2757;DHT22;1386;50.862;6.494;2023-08-30T06:16:18;14.80;99.90
2757;DHT22;1386;50.862;6.494;2023-08-30T06:18:46;14.80;99.90
2757;DHT22;1386;50.862;6.494;2023-08-30T06:21:13;14.80;99.90
2757;DHT22;1386;50.862;6.494;2023-08-30T06:23:40;14.80;99.90
2757;DHT22;1386;50.862;6.494;2023-08-30T06:26:07;14.90;99.90
2757;DHT22;1386;50.862;6.494;2023-08-30T06:28:34;14.90;99.90
2757;DHT22;1386;50.862;6.494;2023-08-30T06:31:00;15.00;99.90
2757;DHT22;1386;50.862;6.494;2023-08-30T06:33:27;15.00;99.90
2757;DHT22;1386;50.862;6.494;2023-08-30T06:35:56;15.10;99.90
2757;DHT22;1386;50.862;6.494;2023-08-30T06:38:22;15.10;99.90
2757;DHT22;1386;50.862;6.494;2023-08-30T06:40:49;15.20;99.90
2757;DHT22;1386;50.862;6.494;2023-08-30T06:43:16;15.30;99.90
2757;DHT22;1386;50.862;6.494;2023-08-30T06:45:43;15.30;99.90
2757;DHT22;1386;50.862;6.494;2023-08-30T06:48:11;15.30;99.90
2757;DHT22;1386;50.862;6.494;2023-08-30T06:50:38;15.40;99.90
2757;DHT22;1386;50.862;6.494;2023-08-30T06:53:06;15.50;99.90
2757;DHT22;1386;50.862;6.494;2023-08-30T06:55:34;15.60;99.90
2757;DHT22;1386;50.862;6.494;2023-08-30T06:58:02;15.70;99.90
2757;DHT22;1386;50.862;6.494;2023-08-30T07:00:29;15.80;99.90
2757;DHT22;1386;50.862;6.494;2023-08-30T07:02:56;15.90;99.90
2757;DHT22;1386;50.862;6.494;2023-08-30T07:05:23;15.90;99.90
2757;DHT22;1386;50.862;6.494;2023-08-30T07:07:50;15.90;99.90
2757;DHT22;1386;50.862;6.494;2023-08-30T07:10:18;16.00;99.90
2757;DHT22;1386;50.862;6.494;2023-08-30T07:12:45;16.10;99.90
2757;DHT22;1386;50.862;6.494;2023-08-30T07:15:14;16.10;99.90
2757;DHT22;1386;50.862;6.494;2023-08-30T07:17:42;16.20;99.90
2757;DHT22;1386;50.862;6.494;2023-08-30T07:20:11;16.30;99.90
2757;DHT22;1386;50.862;6.494;2023-08-30T07:22:38;16.40;99.90
2757;DHT22;1386;50.862;6.494;2023-08-30T07:25:06;16.50;99.90
2757;DHT22;1386;50.862;6.494;2023-08-30T07:27:35;16.50;99.90
2757;DHT22;1386;50.862;6.494;2023-08-30T07:30:03;16.60;99.90
2757;DHT22;1386;50.862;6.494;2023-08-30T07:32:30;16.70;99.90
2757;DHT22;1386;50.862;6.494;2023-08-30T07:34:57;16.80;99.90
2757;DHT22;1386;50.862;6.494;2023-08-30T07:37:25;16.90;99.90
2757;DHT22;1386;50.862;6.494;2023-08-30T07:39:52;17.00;99.90
2757;DHT22;1386;50.862;6.494;2023-08-30T07:42:19;17.10;99.90
2757;DHT22;1386;50.862;6.494;2023-08-30T07:44:47;17.20;99.90
2757;DHT22;1386;50.862;6.494;2023-08-30T07:47:14;17.30;99.90
2757;DHT22;1386;50.862;6.494;2023-08-30T07:49:41;17.30;99.90
2757;DHT22;1386;50.862;6.494;2023-08-30T07:52:10;17.40;99.90
2757;DHT22;1386;50.862;6.494;2023-08-30T07:54:39;17.40;99.90
2757;DHT22;1386;50.862;6.494;2023-08-30T07:57:06;17.50;99.90
2757;DHT22;1386;50.862;6.494;2023-08-30T07:59:33;17.50;99.90
2757;DHT22;1386;50.862;6.494;2023-08-30T08:02:02;17.50;99.90
2757;DHT22;1386;50.862;6.494;2023-08-30T08:04:31;17.60;99.90
2757;DHT22;1386;50.862;6.494;2023-08-30T08:06:58;17.60;99.90
2757;DHT22;1386;50.862;6.494;2023-08-30T08:09:25;17.60;99.90
2757;DHT22;1386;50.862;6.494;2023-08-30T08:11:53;17.70;99.90
2757;DHT22;1386;50.862;6.494;2023-08-30T08:14:21;17.70;99.90
2757;DHT22;1386;50.862;6.494;2023-08-30T08:16:48;17.80;99.90
2757;DHT22;1386;50.862;6.494;2023-08-30T08:19:16;17.80;99.90
2757;DHT22;1386;50.862;6.494;2023-08-30T08:21:43;17.80;99.90
2757;DHT22;1386;50.862;6.494;2023-08-30T08:24:10;17.80;99.90
2757;DHT22;1386;50.862;6.494;2023-08-30T08:26:37;17.80;99.90
2757;DHT22;1386;50.862;6.494;2023-08-30T08:29:04;17.80;99.90
2757;DHT22;1386;50.862;6.494;2023-08-30T08:31:30;17.90;99.90
2757;DHT22;1386;50.862;6.494;2023-08-30T08:34:08;17.90;99.90
2757;DHT22;1386;50.862;6.494;2023-08-30T08:36:38;18.00;99.90
2757;DHT22;1386;50.862;6.494;2023-08-30T08:39:05;17.90;99.90
2757;DHT22;1386;50.862;6.494;2023-08-30T08:41:36;18.00;99.90
2757;DHT22;1386;50.862;6.494;2023-08-30T08:44:05;18.10;99.90
2757;DHT22;1386;50.862;6.494;2023-08-30T08:46:34;18.10;99.90
2757;DHT22;1386;50.862;6.494;2023-08-30T08:49:08;18.10;99.90
2757;DHT22;1386;50.862;6.494;2023-08-30T08:51:37;18.20;99.90
2757;DHT22;1386;50.862;6.494;2023-08-30T08:54:05;18.20;99.90
2757;DHT22;1386;50.862;6.494;2023-08-30T08:56:32;18.20;99.90
2757;DHT22;1386;50.862;6.494;2023-08-30T08:59:00;18.20;99.90
2757;DHT22;1386;50.862;6.494;2023-08-30T09:01:27;18.20;99.90
2757;DHT22;1386;50.862;6.494;2023-08-30T09:03:54;18.20;99.90
2757;DHT22;1386;50.862;6.494;2023-08-30T09:06:22;18.30;99.90
2757;DHT22;1386;50.862;6.494;2023-08-30T09:08:50;18.40;99.90
2757;DHT22;1386;50.862;6.494;2023-08-30T09:11:17;18.40;99.90
2757;DHT22;1386;50.862;6.494;2023-08-30T09:13:44;18.50;99.90
2757;DHT22;1386;50.862;6.494;2023-08-30T09:16:14;18.60;99.90
2757;DHT22;1386;50.862;6.494;2023-08-30T09:18:41;18.70;99.90
2757;DHT22;1386;50.862;6.494;2023-08-30T09:21:08;18.80;99.90
2757;DHT22;1386;50.862;6.494;2023-08-30T09:23:36;18.80;99.90
2757;DHT22;1386;50.862;6.494;2023-08-30T09:26:04;18.90;99.90
2757;DHT22;1386;50.862;6.494;2023-08-30T09:28:31;18.90;99.90
2757;DHT22;1386;50.862;6.494;2023-08-30T09:31:07;18.90;99.90
2757;DHT22;1386;50.862;6.494;2023-08-30T09:33:45;18.90;99.90
2757;DHT22;1386;50.862;6.494;2023-08-30T09:36:13;18.90;99.90
2757;DHT22;1386;50.862;6.494;2023-08-30T09:38:40;18.90;99.90
2757;DHT22;1386;50.862;6.494;2023-08-30T09:41:09;18.90;99.90
2757;DHT22;1386;50.862;6.494;2023-08-30T09:43:42;18.80;99.90
2757;DHT22;1386;50.862;6.494;2023-08-30T09:46:09;18.80;99.90
2757;DHT22;1386;50.862;6.494;2023-08-30T09:48:37;18.90;99.90
2757;DHT22;1386;50.862;6.494;2023-08-30T09:51:07;18.90;99.90
2757;DHT22;1386;50.862;6.494;2023-08-30T09:53:44;18.90;99.90
2757;DHT22;1386;50.862;6.494;2023-08-30T09:56:14;18.90;99.90
2757;DHT22;1386;50.862;6.494;2023-08-30T09:58:42;18.90;99.90
2757;DHT22;1386;50.862;6.494;2023-08-30T10:01:10;18.90;99.90
2757;DHT22;1386;50.862;6.494;2023-08-30T10:03:37;18.90;99.90
2757;DHT22;1386;50.862;6.494;2023-08-30T10:06:04;18.90;99.90
2757;DHT22;1386;50.862;6.494;2023-08-30T10:08:33;18.90;99.90
2757;DHT22;1386;50.862;6.494;2023-08-30T10:11:02;18.90;99.90
2757;DHT22;1386;50.862;6.494;2023-08-30T10:13:31;18.90;99.90
2757;DHT22;1386;50.862;6.494;2023-08-30T10:16:01;18.90;99.90
2757;DHT22;1386;50.862;6.494;2023-08-30T10:18:32;18.90;99.90
2757;DHT22;1386;50.862;6.494;2023-08-30T10:21:02;18.80;99.90
2757;DHT22;1386;50.862;6.494;2023-08-30T10:23:31;18.60;99.90
2757;DHT22;1386;50.862;6.494;2023-08-30T10:25:58;18.50;99.90
2757;DHT22;1386;50.862;6.494;2023-08-30T10:28:26;18.50;99.90
2757;DHT22;1386;50.862;6.494;2023-08-30T10:30:55;18.40;99.90
2757;DHT22;1386;50.862;6.494;2023-08-30T10:33:22;18.30;99.90
2757;DHT22;1386;50.862;6.494;2023-08-30T10:35:51;18.10;99.90
2757;DHT22;1386;50.862;6.494;2023-08-30T10:38:27;17.90;99.90
2757;DHT22;1386;50.862;6.494;2023-08-30T10:40:54;17.80;99.90
2757;DHT22;1386;50.862;6.494;2023-08-30T10:43:33;17.70;99.90
2757;DHT22;1386;50.862;6.494;2023-08-30T10:46:05;17.60;99.90
2757;DHT22;1386;50.862;6.494;2023-08-30T10:48:37;17.50;99.90
2757;DHT22;1386;50.862;6.494;2023-08-30T10:51:05;17.50;99.90
2757;DHT22;1386;50.862;6.494;2023-08-30T10:53:32;17.40;99.90
2757;DHT22;1386;50.862;6.494;2023-08-30T10:56:03;17.40;99.90
2757;DHT22;1386;50.862;6.494;2023-08-30T10:58:40;17.30;99.90
2757;DHT22;1386;50.862;6.494;2023-08-30T11:01:10;17.20;99.90
2757;DHT22;1386;50.862;6.494;2023-08-30T11:03:37;17.20;99.90
2757;DHT22;1386;50.862;6.494;2023-08-30T11:06:04;17.20;99.90
2757;DHT22;1386;50.862;6.494;2023-08-30T11:08:31;17.20;99.90
2757;DHT22;1386;50.862;6.494;2023-08-30T11:11:03;17.10;99.90
2757;DHT22;1386;50.862;6.494;2023-08-30T11:13:31;17.10;99.90
2757;DHT22;1386;50.862;6.494;2023-08-30T11:16:00;17.00;99.90
2757;DHT22;1386;50.862;6.494;2023-08-30T11:18:29;16.90;99.90
2757;DHT22;1386;50.862;6.494;2023-08-30T11:20:59;16.90;99.90
2757;DHT22;1386;50.862;6.494;2023-08-30T11:23:26;16.90;99.90
2757;DHT22;1386;50.862;6.494;2023-08-30T11:25:53;16.90;99.90
2757;DHT22;1386;50.862;6.494;2023-08-30T11:28:23;17.00;99.90
2757;DHT22;1386;50.862;6.494;2023-08-30T11:30:50;17.00;99.90
2757;DHT22;1386;50.862;6.494;2023-08-30T11:33:19;17.00;99.90
2757;DHT22;1386;50.862;6.494;2023-08-30T11:35:49;17.00;99.90
2757;DHT22;1386;50.862;6.494;2023-08-30T11:38:17;16.90;99.90
2757;DHT22;1386;50.862;6.494;2023-08-30T11:40:44;16.90;99.90
2757;DHT22;1386;50.862;6.494;2023-08-30T11:43:11;16.90;99.90
2757;DHT22;1386;50.862;6.494;2023-08-30T11:45:38;16.80;99.90
2757;DHT22;1386;50.862;6.494;2023-08-30T11:48:05;16.80;99.90
2757;DHT22;1386;50.862;6.494;2023-08-30T11:50:33;16.80;99.90
2757;DHT22;1386;50.862;6.494;2023-08-30T11:53:02;16.80;99.90
2757;DHT22;1386;50.862;6.494;2023-08-30T11:55:29;16.80;99.90
2757;DHT22;1386;50.862;6.494;2023-08-30T11:57:56;16.80;99.90
2757;DHT22;1386;50.862;6.494;2023-08-30T12:00:24;16.70;99.90
2757;DHT22;1386;50.862;6.494;2023-08-30T12:02:51;16.70;99.90
2757;DHT22;1386;50.862;6.494;2023-08-30T12:05:18;16.60;99.90
2757;DHT22;1386;50.862;6.494;2023-08-30T12:07:46;16.60;99.90
2757;DHT22;1386;50.862;6.494;2023-08-30T12:10:17;16.60;99.90
2757;DHT22;1386;50.862;6.494;2023-08-30T12:12:45;16.60;99.90
2757;DHT22;1386;50.862;6.494;2023-08-30T12:15:13;16.60;99.90
2757;DHT22;1386;50.862;6.494;2023-08-30T12:17:40;16.60;99.90
2757;DHT22;1386;50.862;6.494;2023-08-30T12:20:15;16.60;99.90
2757;DHT22;1386;50.862;6.494;2023-08-30T12:22:42;16.60;99.90
2757;DHT22;1386;50.862;6.494;2023-08-30T12:25:17;16.60;99.90
2757;DHT22;1386;50.862;6.494;2023-08-30T12:27:44;16.60;99.90
2757;DHT22;1386;50.862;6.494;2023-08-30T12:30:12;16.70;99.90
2757;DHT22;1386;50.862;6.494;2023-08-30T12:32:39;16.70;99.90
2757;DHT22;1386;50.862;6.494;2023-08-30T12:35:07;16.70;99.90
2757;DHT22;1386;50.862;6.494;2023-08-30T12:37:34;16.70;99.90
2757;DHT22;1386;50.862;6.494;2023-08-30T12:40:01;16.60;99.90
2757;DHT22;1386;50.862;6.494;2023-08-30T12:42:29;16.60;99.90
2757;DHT22;1386;50.862;6.494;2023-08-30T12:44:56;16.60;99.90
2757;DHT22;1386;50.862;6.494;2023-08-30T12:47:23;16.60;99.90
2757;DHT22;1386;50.862;6.494;2023-08-30T12:49:50;16.60;99.90
2757;DHT22;1386;50.862;6.494;2023-08-30T12:52:17;16.60;99.90
2757;DHT22;1386;50.862;6.494;2023-08-30T12:54:43;16.60;99.90
2757;DHT22;1386;50.862;6.494;2023-08-30T12:57:10;16.60;99.90
2757;DHT22;1386;50.862;6.494;2023-08-30T12:59:38;16.60;99.90
2757;DHT22;1386;50.862;6.494;2023-08-30T13:02:05;16.60;99.90
2757;DHT22;1386;50.862;6.494;2023-08-30T13:04:32;16.60;99.90
2757;DHT22;1386;50.862;6.494;2023-08-30T13:06:59;16.60;99.90
2757;DHT22;1386;50.862;6.494;2023-08-30T13:09:26;16.70;99.90
2757;DHT22;1386;50.862;6.494;2023-08-30T13:11:59;16.70;99.90
2757;DHT22;1386;50.862;6.494;2023-08-30T13:14:31;16.70;99.90
2757;DHT22;1386;50.862;6.494;2023-08-30T13:17:05;16.70;99.90
2757;DHT22;1386;50.862;6.494;2023-08-30T13:19:32;16.70;99.90
2757;DHT22;1386;50.862;6.494;2023-08-30T13:22:02;16.70;99.90
2757;DHT22;1386;50.862;6.494;2023-08-30T13:24:28;16.60;99.90
2757;DHT22;1386;50.862;6.494;2023-08-30T13:26:57;16.60;99.90
2757;DHT22;1386;50.862;6.494;2023-08-30T13:29:24;16.60;99.90
2757;DHT22;1386;50.862;6.494;2023-08-30T13:31:51;16.60;99.90
2757;DHT22;1386;50.862;6.494;2023-08-30T13:34:19;16.60;99.90
2757;DHT22;1386;50.862;6.494;2023-08-30T13:36:46;16.60;99.90
2757;DHT22;1386;50.862;6.494;2023-08-30T13:39:13;16.60;99.90
2757;DHT22;1386;50.862;6.494;2023-08-30T13:41:40;16.60;99.90
2757;DHT22;1386;50.862;6.494;2023-08-30T13:44:07;16.50;99.90
2757;DHT22;1386;50.862;6.494;2023-08-30T13:46:34;16.40;99.90
2757;DHT22;1386;50.862;6.494;2023-08-30T13:49:00;16.40;99.90
2757;DHT22;1386;50.862;6.494;2023-08-30T13:51:29;16.30;99.90
2757;DHT22;1386;50.862;6.494;2023-08-30T13:53:59;16.30;99.90
2757;DHT22;1386;50.862;6.494;2023-08-30T13:56:26;16.20;99.90
2757;DHT22;1386;50.862;6.494;2023-08-30T13:58:52;16.40;99.90
2757;DHT22;1386;50.862;6.494;2023-08-30T14:01:19;16.30;99.90
2757;DHT22;1386;50.862;6.494;2023-08-30T14:03:46;16.30;99.90
2757;DHT22;1386;50.862;6.494;2023-08-30T14:06:13;16.30;99.90
2757;DHT22;1386;50.862;6.494;2023-08-30T14:08:42;16.20;99.90
2757;DHT22;1386;50.862;6.494;2023-08-30T14:11:09;16.20;99.90
2757;DHT22;1386;50.862;6.494;2023-08-30T14:13:36;16.20;99.90
2757;DHT22;1386;50.862;6.494;2023-08-30T14:16:03;16.20;99.90
2757;DHT22;1386;50.862;6.494;2023-08-30T14:18:30;16.20;99.90
2757;DHT22;1386;50.862;6.494;2023-08-30T14:20:58;16.10;99.90
2757;DHT22;1386;50.862;6.494;2023-08-30T14:23:25;16.10;99.90
2757;DHT22;1386;50.862;6.494;2023-08-30T14:25:58;16.10;99.90
2757;DHT22;1386;50.862;6.494;2023-08-30T14:28:25;16.10;99.90
2757;DHT22;1386;50.862;6.494;2023-08-30T14:30:52;16.00;99.90
2757;DHT22;1386;50.862;6.494;2023-08-30T14:33:19;16.10;99.90
2757;DHT22;1386;50.862;6.494;2023-08-30T14:35:46;16.10;99.90
2757;DHT22;1386;50.862;6.494;2023-08-30T14:38:13;16.30;99.90
2757;DHT22;1386;50.862;6.494;2023-08-30T14:40:40;16.30;99.90
2757;DHT22;1386;50.862;6.494;2023-08-30T14:43:09;16.40;99.90
2757;DHT22;1386;50.862;6.494;2023-08-30T14:45:36;16.60;99.90
2757;DHT22;1386;50.862;6.494;2023-08-30T14:48:03;16.60;99.90
2757;DHT22;1386;50.862;6.494;2023-08-30T14:50:30;16.60;99.90
2757;DHT22;1386;50.862;6.494;2023-08-30T14:52:58;16.50;99.90
2757;DHT22;1386;50.862;6.494;2023-08-30T14:55:24;16.50;99.90
2757;DHT22;1386;50.862;6.494;2023-08-30T14:57:51;16.50;99.90
2757;DHT22;1386;50.862;6.494;2023-08-30T15:00:19;16.60;99.90
2757;DHT22;1386;50.862;6.494;2023-08-30T15:02:46;16.50;99.90
2757;DHT22;1386;50.862;6.494;2023-08-30T15:05:13;16.50;99.90
2757;DHT22;1386;50.862;6.494;2023-08-30T15:07:40;16.50;99.90
2757;DHT22;1386;50.862;6.494;2023-08-30T15:10:07;16.50;99.90
2757;DHT22;1386;50.862;6.494;2023-08-30T15:12:34;16.40;99.90
2757;DHT22;1386;50.862;6.494;2023-08-30T15:15:02;16.50;99.90
2757;DHT22;1386;50.862;6.494;2023-08-30T15:17:30;16.50;99.90
2757;DHT22;1386;50.862;6.494;2023-08-30T15:19:57;16.40;99.90
2757;DHT22;1386;50.862;6.494;2023-08-30T15:22:24;16.50;99.90
2757;DHT22;1386;50.862;6.494;2023-08-30T15:24:51;16.50;99.90
2757;DHT22;1386;50.862;6.494;2023-08-30T15:27:21;16.60;99.90
2757;DHT22;1386;50.862;6.494;2023-08-30T15:29:47;16.60;99.90
2757;DHT22;1386;50.862;6.494;2023-08-30T15:32:17;16.60;99.90
2757;DHT22;1386;50.862;6.494;2023-08-30T15:34:45;16.60;99.90
2757;DHT22;1386;50.862;6.494;2023-08-30T15:37:12;16.60;99.90
2757;DHT22;1386;50.862;6.494;2023-08-30T15:39:40;16.60;99.90
2757;DHT22;1386;50.862;6.494;2023-08-30T15:42:07;16.60;99.90
2757;DHT22;1386;50.862;6.494;2023-08-30T15:44:35;16.70;99.90
2757;DHT22;1386;50.862;6.494;2023-08-30T15:47:02;16.70;99.90
2757;DHT22;1386;50.862;6.494;2023-08-30T15:49:29;16.70;99.90
2757;DHT22;1386;50.862;6.494;2023-08-30T15:51:57;16.70;99.90
2757;DHT22;1386;50.862;6.494;2023-08-30T15:54:24;16.70;99.90
2757;DHT22;1386;50.862;6.494;2023-08-30T15:56:51;16.70;99.90
2757;DHT22;1386;50.862;6.494;2023-08-30T15:59:18;16.80;99.90
2757;DHT22;1386;50.862;6.494;2023-08-30T16:01:45;16.80;99.90
2757;DHT22;1386;50.862;6.494;2023-08-30T16:04:11;16.70;99.90
2757;DHT22;1386;50.862;6.494;2023-08-30T16:06:38;16.80;99.90